Time;durP1;ratioP1;P1;durP2;ratioP2;P2;SDS_P1;SDS_P2;PMS_P1;PMS_P2;Temp;Humidity;BMP_temperature;BMP_pressure;BME280_temperature;BME280_humidity;BME280_pressure;Samples;Min_cycle;Max_cycle;Signal;HPM_P1;HPM_P2
2024/03/11 00:00:54;;;;;;;12.77;8.50;;;;;;;;;;5002058;28;20216;-78
2024/03/11 00:03:22;;;;;;;8.52;7.72;;;;;;;;;;5007598;28;21029;-78
2024/03/11 00:05:52;;;;;;;9.15;8.40;;;;;;;;;;5003382;28;20217;-77
2024/03/11 00:08:22;;;;;;;9.57;8.70;;;;;;;;;;4999729;28;20206;-78
2024/03/11 00:10:55;;;;;;;9.77;8.98;;;;;;;;;;4998616;28;20218;-80
2024/03/11 00:13:23;;;;;;;10.38;9.43;;;;;;;;;;4984459;28;20218;-79
2024/03/11 00:15:51;;;;;;;10.80;9.73;;;;;;;;;;4998937;28;20217;-79
2024/03/11 00:18:20;;;;;;;10.40;9.50;;;;;;;;;;4996799;28;20214;-79
2024/03/11 00:20:48;;;;;;;12.18;11.10;;;;;;;;;;5004040;28;20219;-78
2024/03/11 00:23:16;;;;;;;11.68;10.57;;;;;;;;;;4993220;28;20226;-78
2024/03/11 00:25:46;;;;;;;12.02;11.02;;;;;;;;;;4991318;28;20206;-78
2024/03/11 00:28:16;;;;;;;11.90;10.90;;;;;;;;;;4989813;28;20263;-78
2024/03/11 00:30:45;;;;;;;11.77;10.68;;;;;;;;;;4993148;28;20214;-78
2024/03/11 00:33:13;;;;;;;12.48;11.18;;;;;;;;;;5000409;28;20202;-78
2024/03/11 00:35:43;;;;;;;13.25;11.23;;;;;;;;;;5003066;28;20692;-78
2024/03/11 00:38:11;;;;;;;12.90;11.18;;;;;;;;;;4998366;28;20242;-78
2024/03/11 00:40:40;;;;;;;11.95;10.85;;;;;;;;;;5000294;28;20218;-78
2024/03/11 00:43:11;;;;;;;10.15;8.95;;;;;;;;;;4988888;28;20261;-79
2024/03/11 00:45:40;;;;;;;10.63;9.63;;;;;;;;;;4993533;28;20215;-78
2024/03/11 00:48:11;;;;;;;10.65;9.75;;;;;;;;;;4996971;28;20221;-78
2024/03/11 00:50:39;;;;;;;10.80;9.00;;;;;;;;;;4979147;28;20265;-78
2024/03/11 00:53:08;;;;;;;10.98;9.57;;;;;;;;;;5015038;28;20210;-78
2024/03/11 00:55:38;;;;;;;11.07;9.30;;;;;;;;;;4987872;28;20211;-78
2024/03/11 00:58:07;;;;;;;10.80;9.27;;;;;;;;;;5004118;28;20190;-78
2024/03/11 01:00:36;;;;;;;10.93;9.75;;;;;;;;;;5005511;28;20590;-78
2024/03/11 01:03:06;;;;;;;9.35;8.50;;;;;;;;;;4998380;28;20236;-78
2024/03/11 01:05:34;;;;;;;11.02;10.02;;;;;;;;;;4995773;28;20659;-78
2024/03/11 01:08:03;;;;;;;10.38;9.40;;;;;;;;;;5000890;28;20544;-78
2024/03/11 01:10:31;;;;;;;9.95;9.05;;;;;;;;;;4987261;28;20226;-79
2024/03/11 01:12:59;;;;;;;8.80;8.00;;;;;;;;;;4993555;28;20720;-77
2024/03/11 01:15:28;;;;;;;9.82;8.93;;;;;;;;;;5009940;28;20309;-79
2024/03/11 01:17:58;;;;;;;9.75;8.85;;;;;;;;;;5000121;28;20217;-78
2024/03/11 01:20:29;;;;;;;9.45;8.38;;;;;;;;;;5008945;28;20211;-79
2024/03/11 01:22:57;;;;;;;9.45;8.65;;;;;;;;;;4992162;28;20225;-78
2024/03/11 01:25:26;;;;;;;9.50;8.65;;;;;;;;;;4990661;28;20217;-78
2024/03/11 01:27:54;;;;;;;9.27;8.38;;;;;;;;;;4989229;28;20203;-78
2024/03/11 01:30:24;;;;;;;10.15;9.20;;;;;;;;;;5004904;28;20206;-78
2024/03/11 01:32:52;;;;;;;10.77;9.77;;;;;;;;;;5002914;28;20210;-78
2024/03/11 01:35:22;;;;;;;10.68;9.10;;;;;;;;;;4998973;28;20214;-78
2024/03/11 01:37:50;;;;;;;10.60;9.55;;;;;;;;;;4997961;28;20207;-78
2024/03/11 01:40:19;;;;;;;10.90;9.90;;;;;;;;;;5000868;28;20696;-78
2024/03/11 01:42:50;;;;;;;10.77;9.68;;;;;;;;;;4994914;28;20223;-78
2024/03/11 01:45:18;;;;;;;11.13;9.95;;;;;;;;;;5000555;28;20233;-78
2024/03/11 01:47:47;;;;;;;12.02;9.40;;;;;;;;;;4995926;28;20253;-78
2024/03/11 01:50:16;;;;;;;11.43;10.32;;;;;;;;;;5009488;28;20224;-78
2024/03/11 01:52:48;;;;;;;10.15;9.10;;;;;;;;;;5001042;28;20214;-79
2024/03/11 01:55:17;;;;;;;11.18;9.98;;;;;;;;;;5004960;28;20218;-79
2024/03/11 01:57:50;;;;;;;9.60;8.65;;;;;;;;;;5005888;28;20685;-79
2024/03/11 02:00:21;;;;;;;9.10;8.30;;;;;;;;;;5004593;28;20217;-78
2024/03/11 02:02:51;;;;;;;10.35;9.25;;;;;;;;;;4998758;28;20714;-79
2024/03/11 02:05:19;;;;;;;9.48;8.57;;;;;;;;;;5023962;28;20213;-79
2024/03/11 02:07:51;;;;;;;8.45;7.75;;;;;;;;;;4999560;28;20202;-78
2024/03/11 02:10:20;;;;;;;8.57;7.68;;;;;;;;;;5000002;28;20214;-79
2024/03/11 02:12:49;;;;;;;10.40;9.30;;;;;;;;;;5008459;28;20202;-78
2024/03/11 02:15:18;;;;;;;13.40;11.20;;;;;;;;;;5004388;28;20211;-78
2024/03/11 02:17:47;;;;;;;12.10;10.90;;;;;;;;;;5002973;28;20763;-78
2024/03/11 02:20:16;;;;;;;12.25;11.05;;;;;;;;;;5003468;28;20220;-78
2024/03/11 02:22:46;;;;;;;13.93;12.40;;;;;;;;;;4996128;28;20210;-78
2024/03/11 02:25:16;;;;;;;11.65;10.45;;;;;;;;;;5003249;28;20214;-78
2024/03/11 02:27:46;;;;;;;12.10;10.77;;;;;;;;;;4988001;28;20206;-78
2024/03/11 02:30:15;;;;;;;12.93;11.52;;;;;;;;;;4987344;28;20222;-78
2024/03/11 02:32:44;;;;;;;13.57;12.18;;;;;;;;;;4994716;28;20217;-79
2024/03/11 02:35:12;;;;;;;12.30;10.75;;;;;;;;;;5007402;28;20209;-81
2024/03/11 02:37:43;;;;;;;13.25;11.93;;;;;;;;;;5000545;28;20202;-79
2024/03/11 02:40:12;;;;;;;14.07;12.57;;;;;;;;;;4992283;28;20671;-79
2024/03/11 02:42:41;;;;;;;14.77;13.10;;;;;;;;;;5002636;28;20221;-79
2024/03/11 02:45:14;;;;;;;14.38;12.82;;;;;;;;;;4999147;28;20305;-79
2024/03/11 02:47:43;;;;;;;14.30;12.85;;;;;;;;;;5018449;28;20284;-79
2024/03/11 02:50:11;;;;;;;14.30;12.80;;;;;;;;;;5003178;28;20260;-79
2024/03/11 02:52:40;;;;;;;16.73;14.93;;;;;;;;;;4998344;28;20211;-79
2024/03/11 02:55:13;;;;;;;16.38;13.65;;;;;;;;;;5011287;28;20202;-79
2024/03/11 02:57:47;;;;;;;17.80;15.43;;;;;;;;;;4999062;28;20210;-80
2024/03/11 03:00:15;;;;;;;17.65;15.75;;;;;;;;;;5002318;28;20224;-79
2024/03/11 03:02:44;;;;;;;18.55;16.30;;;;;;;;;;5004493;28;20592;-78
2024/03/11 03:05:13;;;;;;;16.92;15.20;;;;;;;;;;4990824;28;20657;-79
2024/03/11 03:07:41;;;;;;;20.17;17.40;;;;;;;;;;4992843;28;20207;-78
2024/03/11 03:10:11;;;;;;;20.42;16.70;;;;;;;;;;5004251;28;20697;-79
2024/03/11 03:12:39;;;;;;;21.42;18.90;;;;;;;;;;5004937;28;20206;-78
2024/03/11 03:15:10;;;;;;;108.47;93.32;;;;;;;;;;5000852;28;20271;-78
2024/03/11 03:17:39;;;;;;;169.10;101.07;;;;;;;;;;4997128;28;20211;-78
2024/03/11 03:20:09;;;;;;;38.15;30.98;;;;;;;;;;4998501;28;20221;-78
2024/03/11 03:22:39;;;;;;;26.60;23.13;;;;;;;;;;4990673;28;20210;-79
2024/03/11 03:25:09;;;;;;;23.85;19.83;;;;;;;;;;5006105;28;20233;-78
2024/03/11 03:27:37;;;;;;;28.35;23.00;;;;;;;;;;4986955;28;20674;-78
2024/03/11 03:30:06;;;;;;;23.55;20.15;;;;;;;;;;5004838;28;20218;-79
2024/03/11 03:32:35;;;;;;;21.92;17.88;;;;;;;;;;4994728;28;20222;-78
2024/03/11 03:35:05;;;;;;;83.70;64.03;;;;;;;;;;4997700;28;20202;-78
2024/03/11 03:37:34;;;;;;;24.63;21.95;;;;;;;;;;4992998;28;20215;-78
2024/03/11 03:40:05;;;;;;;19.35;16.00;;;;;;;;;;4992960;28;20209;-78
2024/03/11 03:42:40;;;;;;;20.20;16.85;;;;;;;;;;5000240;28;20215;-78
2024/03/11 03:45:09;;;;;;;30.98;23.95;;;;;;;;;;5003554;28;20230;-78
2024/03/11 03:47:39;;;;;;;23.08;17.23;;;;;;;;;;5005670;28;20210;-78
2024/03/11 03:50:10;;;;;;;23.83;19.63;;;;;;;;;;4988406;28;20223;-77
2024/03/11 03:52:42;;;;;;;20.35;18.15;;;;;;;;;;4997094;28;20217;-78
2024/03/11 03:55:11;;;;;;;19.30;17.30;;;;;;;;;;5003498;28;20233;-78
2024/03/11 03:57:40;;;;;;;22.92;18.42;;;;;;;;;;5005584;28;20699;-78
2024/03/11 04:00:15;;;;;;;18.23;16.25;;;;;;;;;;5000174;28;20210;-78
2024/03/11 04:02:45;;;;;;;19.15;15.48;;;;;;;;;;4997031;28;20234;-77
2024/03/11 04:05:13;;;;;;;17.90;15.50;;;;;;;;;;5001208;28;20253;-78
2024/03/11 04:07:42;;;;;;;18.27;15.13;;;;;;;;;;4996408;28;20654;-77
2024/03/11 04:10:12;;;;;;;18.73;15.77;;;;;;;;;;4994050;28;20219;-78
2024/03/11 04:12:44;;;;;;;16.75;13.85;;;;;;;;;;5000183;28;20198;-77
2024/03/11 04:15:12;;;;;;;14.10;12.60;;;;;;;;;;4983526;28;20199;-78
2024/03/11 04:17:41;;;;;;;14.88;12.00;;;;;;;;;;5001056;28;20747;-77
2024/03/11 04:20:12;;;;;;;13.15;11.88;;;;;;;;;;5000002;28;20685;-78
2024/03/11 04:22:42;;;;;;;12.90;11.70;;;;;;;;;;4999822;28;20236;-78
2024/03/11 04:25:15;;;;;;;10.77;9.70;;;;;;;;;;4996499;28;20245;-78
2024/03/11 04:27:45;;;;;;;12.68;10.45;;;;;;;;;;4999538;28;20195;-78
2024/03/11 04:30:15;;;;;;;11.88;10.68;;;;;;;;;;4992413;28;20226;-78
2024/03/11 04:32:51;;;;;;;10.70;9.60;;;;;;;;;;4997524;28;20206;-77
2024/03/11 04:35:24;;;;;;;10.60;9.60;;;;;;;;;;5000346;28;20190;-77
2024/03/11 04:37:52;;;;;;;11.85;10.65;;;;;;;;;;4997431;28;20206;-77
2024/03/11 04:40:21;;;;;;;8.77;8.07;;;;;;;;;;5001580;28;20214;-77
2024/03/11 04:42:49;;;;;;;10.23;9.00;;;;;;;;;;4996304;28;20257;-78
2024/03/11 04:45:17;;;;;;;9.80;8.90;;;;;;;;;;5002290;28;20234;-77
2024/03/11 04:47:45;;;;;;;10.40;8.77;;;;;;;;;;4994682;28;20233;-77
2024/03/11 04:50:20;;;;;;;10.02;9.13;;;;;;;;;;4999813;28;20260;-78
2024/03/11 04:52:50;;;;;;;9.60;8.70;;;;;;;;;;4997082;28;20207;-77
2024/03/11 04:55:18;;;;;;;8.82;7.95;;;;;;;;;;5008145;28;20210;-77
2024/03/11 04:57:47;;;;;;;9.73;8.63;;;;;;;;;;5013626;28;20210;-77
2024/03/11 05:00:16;;;;;;;8.15;7.45;;;;;;;;;;5000716;28;20285;-77
2024/03/11 05:02:44;;;;;;;9.10;7.72;;;;;;;;;;4986951;28;20237;-78
2024/03/11 05:05:12;;;;;;;10.13;9.13;;;;;;;;;;5000258;28;20226;-77
2024/03/11 05:07:40;;;;;;;8.60;7.70;;;;;;;;;;4997245;28;20595;-77
2024/03/11 05:10:12;;;;;;;8.98;8.05;;;;;;;;;;5014766;28;20204;-77
2024/03/11 05:12:40;;;;;;;9.40;8.50;;;;;;;;;;4997646;28;20203;-77
2024/03/11 05:15:09;;;;;;;9.60;8.35;;;;;;;;;;5006694;28;20674;-77
2024/03/11 05:17:37;;;;;;;9.30;8.05;;;;;;;;;;4997274;28;20206;-77
2024/03/11 05:20:11;;;;;;;8.98;7.93;;;;;;;;;;4997166;28;20216;-77
2024/03/11 05:22:41;;;;;;;9.05;7.90;;;;;;;;;;5006751;28;20213;-77
2024/03/11 05:25:12;;;;;;;8.07;7.20;;;;;;;;;;4995971;28;20230;-79
2024/03/11 05:27:40;;;;;;;8.98;8.15;;;;;;;;;;5006324;28;20216;-79
2024/03/11 05:30:09;;;;;;;9.10;7.65;;;;;;;;;;5001795;28;20210;-77
2024/03/11 05:32:37;;;;;;;9.48;7.90;;;;;;;;;;5001223;28;20210;-79
2024/03/11 05:35:06;;;;;;;9.23;8.40;;;;;;;;;;5006814;28;20212;-78
2024/03/11 05:37:36;;;;;;;8.82;7.93;;;;;;;;;;5007121;28;20202;-79
2024/03/11 05:40:11;;;;;;;9.20;8.27;;;;;;;;;;4994776;28;20245;-79
2024/03/11 05:42:41;;;;;;;9.23;8.32;;;;;;;;;;5007612;28;20592;-78
2024/03/11 05:45:10;;;;;;;8.20;7.43;;;;;;;;;;4993335;28;20764;-78
2024/03/11 05:47:41;;;;;;;9.10;7.85;;;;;;;;;;5003576;28;20211;-78
2024/03/11 05:50:12;;;;;;;8.02;7.25;;;;;;;;;;4994585;28;20214;-78
2024/03/11 05:52:44;;;;;;;8.85;7.68;;;;;;;;;;5005483;28;20214;-79
2024/03/11 05:55:12;;;;;;;10.52;8.60;;;;;;;;;;4998117;28;20228;-78
2024/03/11 05:57:43;;;;;;;8.98;8.07;;;;;;;;;;5003734;28;20259;-79
2024/03/11 06:00:15;;;;;;;8.00;7.20;;;;;;;;;;4996912;28;20248;-78
2024/03/11 06:02:44;;;;;;;9.23;8.20;;;;;;;;;;5003819;28;20722;-78
2024/03/11 06:05:13;;;;;;;10.45;9.32;;;;;;;;;;5006983;28;20296;-78
2024/03/11 06:07:42;;;;;;;9.50;8.60;;;;;;;;;;4997296;28;20207;-78
2024/03/11 06:10:11;;;;;;;9.70;8.20;;;;;;;;;;4993651;28;20217;-79
2024/03/11 06:12:39;;;;;;;9.23;8.38;;;;;;;;;;4993782;28;20230;-81
2024/03/11 06:15:09;;;;;;;10.88;8.52;;;;;;;;;;5003935;28;20658;-79
2024/03/11 06:17:38;;;;;;;8.88;8.05;;;;;;;;;;5006899;28;20202;-78
2024/03/11 06:20:09;;;;;;;9.18;8.07;;;;;;;;;;4999428;28;20204;-79
2024/03/11 06:22:39;;;;;;;10.25;8.15;;;;;;;;;;5007686;28;20389;-79
2024/03/11 06:25:07;;;;;;;9.13;8.23;;;;;;;;;;5010830;28;20708;-79
2024/03/11 06:27:36;;;;;;;10.18;9.10;;;;;;;;;;4989657;28;20650;-80
2024/03/11 06:30:05;;;;;;;10.00;9.00;;;;;;;;;;5002659;28;20684;-78
2024/03/11 06:32:36;;;;;;;10.80;9.27;;;;;;;;;;5008076;28;20223;-78
2024/03/11 06:35:05;;;;;;;9.30;8.50;;;;;;;;;;4993826;28;20195;-77
2024/03/11 06:37:33;;;;;;;10.40;8.80;;;;;;;;;;4996009;28;20260;-78
2024/03/11 06:40:02;;;;;;;10.07;9.02;;;;;;;;;;4993748;28;20690;-79
2024/03/11 06:42:31;;;;;;;8.82;7.93;;;;;;;;;;4999907;28;20638;-79
2024/03/11 06:45:15;;;;;;;8.85;7.88;;;;;;;;;;4994816;28;20228;-77
2024/03/11 06:47:45;;;;;;;8.80;7.97;;;;;;;;;;5006471;28;20194;-79
2024/03/11 06:50:14;;;;;;;9.95;8.32;;;;;;;;;;5003183;28;20666;-78
2024/03/11 06:52:43;;;;;;;9.10;8.20;;;;;;;;;;4990758;28;20207;-79
2024/03/11 06:55:11;;;;;;;10.00;9.10;;;;;;;;;;4991299;28;20207;-78
2024/03/11 06:57:41;;;;;;;8.35;7.65;;;;;;;;;;5006698;28;20205;-79
2024/03/11 07:00:17;;;;;;;8.48;7.65;;;;;;;;;;5003667;28;20206;-80
2024/03/11 07:02:48;;;;;;;7.90;7.20;;;;;;;;;;4998462;28;20230;-79
2024/03/11 07:05:17;;;;;;;7.95;7.25;;;;;;;;;;5003176;28;20230;-78
2024/03/11 07:07:46;;;;;;;8.07;7.25;;;;;;;;;;4998730;28;20205;-78
2024/03/11 07:10:15;;;;;;;8.00;7.32;;;;;;;;;;4995063;28;20685;-78
2024/03/11 07:12:44;;;;;;;8.45;7.68;;;;;;;;;;4997178;28;20213;-78
2024/03/11 07:15:12;;;;;;;8.40;7.60;;;;;;;;;;4996577;28;20198;-79
2024/03/11 07:17:41;;;;;;;8.50;7.70;;;;;;;;;;5001715;28;20207;-80
2024/03/11 07:20:13;;;;;;;7.78;7.07;;;;;;;;;;5006303;28;20206;-79
2024/03/11 07:22:42;;;;;;;9.85;7.55;;;;;;;;;;4997534;28;20205;-79
2024/03/11 07:25:10;;;;;;;8.70;7.78;;;;;;;;;;5002633;28;20234;-79
2024/03/11 07:27:39;;;;;;;8.40;7.65;;;;;;;;;;5006369;28;20279;-79
2024/03/11 07:30:09;;;;;;;8.05;7.35;;;;;;;;;;5001749;28;20271;-77
2024/03/11 07:32:37;;;;;;;11.52;7.80;;;;;;;;;;4994164;28;20198;-77
2024/03/11 07:35:06;;;;;;;7.90;7.10;;;;;;;;;;5001151;28;20206;-78
2024/03/11 07:37:37;;;;;;;7.30;6.72;;;;;;;;;;4998755;28;20215;-77
2024/03/11 07:40:11;;;;;;;8.27;7.47;;;;;;;;;;4987201;28;20203;-78
2024/03/11 07:42:39;;;;;;;7.03;6.43;;;;;;;;;;5001921;28;21074;-77
2024/03/11 07:45:10;;;;;;;7.88;6.47;;;;;;;;;;5001766;28;20209;-78
2024/03/11 07:47:40;;;;;;;7.45;6.75;;;;;;;;;;4996540;28;20214;-78
2024/03/11 07:50:11;;;;;;;10.18;6.45;;;;;;;;;;5004093;28;20214;-78
2024/03/11 07:52:42;;;;;;;7.40;6.72;;;;;;;;;;5001239;28;20779;-78
2024/03/11 07:55:11;;;;;;;9.35;6.80;;;;;;;;;;5002933;28;20228;-80
2024/03/11 07:57:39;;;;;;;6.45;5.95;;;;;;;;;;5000695;28;20218;-79
2024/03/11 08:00:09;;;;;;;6.05;5.55;;;;;;;;;;5000814;28;20213;-79
2024/03/11 08:02:37;;;;;;;6.25;5.75;;;;;;;;;;4997177;28;20242;-78
2024/03/11 08:05:13;;;;;;;7.43;6.70;;;;;;;;;;5002398;28;20209;-79
2024/03/11 08:07:43;;;;;;;6.45;5.93;;;;;;;;;;5000115;28;20208;-80
2024/03/11 08:10:12;;;;;;;6.35;5.88;;;;;;;;;;5000283;28;20210;-78
2024/03/11 08:12:41;;;;;;;7.35;6.22;;;;;;;;;;4995348;28;20216;-78
2024/03/11 08:15:12;;;;;;;6.80;6.20;;;;;;;;;;5005930;28;20634;-78
2024/03/11 08:17:42;;;;;;;7.25;6.60;;;;;;;;;;5008648;28;20259;-79
2024/03/11 08:20:16;;;;;;;6.50;6.00;;;;;;;;;;5001047;28;20575;-77
2024/03/11 08:22:47;;;;;;;6.88;6.18;;;;;;;;;;4996926;28;20256;-77
2024/03/11 08:25:16;;;;;;;7.03;6.32;;;;;;;;;;5002952;28;20228;-77
2024/03/11 08:27:46;;;;;;;8.57;6.43;;;;;;;;;;5004861;28;20205;-77
2024/03/11 08:30:15;;;;;;;6.35;5.85;;;;;;;;;;4995778;28;20667;-77
2024/03/11 08:32:44;;;;;;;5.63;5.18;;;;;;;;;;4998564;28;20210;-79
2024/03/11 08:35:14;;;;;;;7.30;5.68;;;;;;;;;;4988790;28;20215;-79
2024/03/11 08:37:42;;;;;;;6.40;5.80;;;;;;;;;;4999318;28;20662;-78
2024/03/11 08:40:14;;;;;;;6.35;5.78;;;;;;;;;;5001671;28;20665;-78
2024/03/11 08:42:44;;;;;;;5.85;5.25;;;;;;;;;;5003561;28;20206;-78
2024/03/11 08:45:12;;;;;;;7.97;4.35;;;;;;;;;;4998199;28;20213;-78
2024/03/11 08:47:41;;;;;;;7.40;5.70;;;;;;;;;;4998865;28;20226;-81
2024/03/11 08:50:12;;;;;;;5.97;5.47;;;;;;;;;;5008853;28;20210;-78
2024/03/11 08:52:43;;;;;;;5.80;4.90;;;;;;;;;;4994263;28;20210;-78
2024/03/11 08:55:15;;;;;;;6.20;5.63;;;;;;;;;;5002568;28;20198;-78
2024/03/11 08:57:45;;;;;;;6.80;4.78;;;;;;;;;;5007523;28;20209;-78
2024/03/11 09:00:15;;;;;;;10.15;5.25;;;;;;;;;;5002703;28;20227;-78
2024/03/11 09:02:44;;;;;;;4.78;3.80;;;;;;;;;;5016515;28;20617;-78
2024/03/11 09:05:17;;;;;;;4.63;4.30;;;;;;;;;;5005070;28;20221;-77
2024/03/11 09:07:46;;;;;;;5.05;4.10;;;;;;;;;;4999578;28;20229;-78
2024/03/11 09:10:16;;;;;;;5.78;3.92;;;;;;;;;;4999140;28;20206;-80
2024/03/11 09:12:47;;;;;;;4.43;4.05;;;;;;;;;;5000639;28;20207;-78
2024/03/11 09:15:16;;;;;;;3.50;3.20;;;;;;;;;;5014569;28;20716;-79
2024/03/11 09:17:46;;;;;;;4.82;3.72;;;;;;;;;;5008471;28;20210;-78
2024/03/11 09:20:16;;;;;;;3.63;3.20;;;;;;;;;;5006015;28;20220;-77
2024/03/11 09:22:46;;;;;;;3.80;3.60;;;;;;;;;;5000343;28;20737;-78
2024/03/11 09:25:17;;;;;;;4.68;3.55;;;;;;;;;;4996380;28;20212;-77
2024/03/11 09:27:50;;;;;;;3.90;3.60;;;;;;;;;;5004913;28;20268;-78
2024/03/11 09:30:19;;;;;;;3.47;3.17;;;;;;;;;;5002154;28;20222;-78
2024/03/11 09:32:49;;;;;;;3.38;3.15;;;;;;;;;;5000204;28;20268;-78
2024/03/11 09:35:17;;;;;;;3.47;3.22;;;;;;;;;;4995210;28;20217;-78
2024/03/11 09:37:46;;;;;;;3.03;2.83;;;;;;;;;;4997279;28;20284;-78
2024/03/11 09:40:17;;;;;;;3.05;2.75;;;;;;;;;;4998858;28;20210;-77
2024/03/11 09:42:47;;;;;;;2.95;2.75;;;;;;;;;;4996342;28;20207;-79
2024/03/11 09:45:18;;;;;;;2.50;2.20;;;;;;;;;;5001194;28;20642;-78
2024/03/11 09:47:52;;;;;;;3.33;3.05;;;;;;;;;;5006399;28;20230;-78
2024/03/11 09:50:26;;;;;;;3.60;3.30;;;;;;;;;;4999548;28;20214;-78
2024/03/11 09:52:57;;;;;;;3.58;2.80;;;;;;;;;;5012223;28;20209;-79
2024/03/11 09:55:28;;;;;;;5.93;2.25;;;;;;;;;;4995238;28;20213;-79
2024/03/11 09:58:01;;;;;;;2.87;2.67;;;;;;;;;;5005191;28;20284;-78
2024/03/11 10:00:32;;;;;;;3.27;2.70;;;;;;;;;;4994170;28;20955;-78
2024/03/11 10:03:01;;;;;;;3.20;2.90;;;;;;;;;;4995408;28;20635;-77
2024/03/11 10:05:31;;;;;;;3.47;3.20;;;;;;;;;;5004742;28;20218;-79
2024/03/11 10:08:04;;;;;;;2.73;2.60;;;;;;;;;;5000451;28;20648;-78
2024/03/11 10:10:35;;;;;;;2.73;2.53;;;;;;;;;;5006027;28;20632;-79
2024/03/11 10:13:05;;;;;;;3.33;3.03;;;;;;;;;;5002208;28;21264;-79
2024/03/11 10:15:33;;;;;;;2.70;2.50;;;;;;;;;;4995412;28;20680;-78
2024/03/11 10:21:07;;;;;;;2.97;2.78;;;;;;;;;;5093680;23;21414;-78
2024/03/11 10:23:36;;;;;;;7.37;3.77;;;;;;;;;;4990695;28;20683;-78
2024/03/11 10:26:17;;;;;;;3.40;2.97;;;;;;;;;;4957277;28;20595;-78
2024/03/11 10:28:47;;;;;;;5.75;3.40;;;;;;;;;;4986143;28;20717;-78
2024/03/11 10:31:23;;;;;;;4.03;3.57;;;;;;;;;;4983291;28;20221;-78
2024/03/11 10:33:53;;;;;;;4.87;3.67;;;;;;;;;;5000203;28;20647;-77
2024/03/11 10:36:24;;;;;;;3.60;3.35;;;;;;;;;;5006229;28;20624;-79
2024/03/11 10:38:57;;;;;;;3.23;3.03;;;;;;;;;;5004892;28;20651;-78
2024/03/11 10:41:28;;;;;;;3.90;3.57;;;;;;;;;;4989663;28;20632;-78
2024/03/11 10:43:57;;;;;;;2.90;2.70;;;;;;;;;;4999811;28;20698;-78
2024/03/11 10:46:25;;;;;;;3.33;2.93;;;;;;;;;;5006125;28;20627;-78
2024/03/11 10:48:54;;;;;;;3.93;3.73;;;;;;;;;;5001833;28;21047;-78
2024/03/11 10:51:22;;;;;;;3.00;2.80;;;;;;;;;;5000576;28;20617;-78
2024/03/11 10:53:52;;;;;;;3.20;3.10;;;;;;;;;;4994679;28;20624;-77
2024/03/11 10:56:24;;;;;;;2.73;2.63;;;;;;;;;;5000769;28;21463;-79
2024/03/11 10:58:57;;;;;;;3.57;3.37;;;;;;;;;;4992772;28;20672;-78
2024/03/11 11:01:32;;;;;;;3.77;3.47;;;;;;;;;;4999893;28;21154;-79
2024/03/11 11:04:05;;;;;;;3.33;3.23;;;;;;;;;;4992799;28;20632;-78
2024/03/11 11:06:36;;;;;;;3.63;3.50;;;;;;;;;;5004852;28;20627;-81
2024/03/11 11:09:11;;;;;;;4.13;3.93;;;;;;;;;;5008270;28;20642;-80
2024/03/11 11:11:49;;;;;;;4.90;4.60;;;;;;;;;;4999614;28;20607;-80
2024/03/11 11:14:19;;;;;;;4.40;4.30;;;;;;;;;;5002133;28;20605;-79
2024/03/11 11:16:51;;;;;;;5.33;5.03;;;;;;;;;;4989852;28;20626;-82
2024/03/11 11:19:23;;;;;;;5.27;5.07;;;;;;;;;;5004093;28;20734;-81
2024/03/11 11:21:52;;;;;;;5.80;5.43;;;;;;;;;;4979593;28;20638;-78
2024/03/11 11:24:26;;;;;;;6.70;6.50;;;;;;;;;;4990133;28;21212;-78
2024/03/11 11:26:56;;;;;;;7.70;7.30;;;;;;;;;;4992106;28;20710;-79
2024/03/11 11:29:27;;;;;;;7.60;7.20;;;;;;;;;;4978379;28;20679;-80
2024/03/11 11:32:02;;;;;;;7.97;7.70;;;;;;;;;;4997085;28;20621;-80
2024/03/11 11:34:50;;;;;;;7.70;7.50;;;;;;;;;;4968020;28;20676;-80
2024/03/11 11:37:35;;;;;;;9.00;8.70;;;;;;;;;;4994622;28;20649;-77
2024/03/11 11:40:22;;;;;;;8.90;8.50;;;;;;;;;;4984401;28;20633;-78
2024/03/11 11:42:51;;;;;;;7.70;7.30;;;;;;;;;;4997266;28;20644;-78
2024/03/11 11:45:34;;;;;;;8.87;8.57;;;;;;;;;;4989803;28;20641;-78
2024/03/11 11:48:16;;;;;;;8.27;7.87;;;;;;;;;;4992639;28;20738;-78
2024/03/11 11:50:45;;;;;;;7.83;7.57;;;;;;;;;;5004238;28;20621;-79
2024/03/11 11:53:14;;;;;;;9.03;8.63;;;;;;;;;;5001255;28;20621;-77
2024/03/11 11:55:50;;;;;;;8.87;8.57;;;;;;;;;;5002095;28;20772;-77
2024/03/11 11:58:18;;;;;;;8.33;8.03;;;;;;;;;;4988297;28;20633;-80
2024/03/11 12:00:47;;;;;;;8.57;8.27;;;;;;;;;;4993170;28;20626;-81
2024/03/11 12:03:27;;;;;;;8.33;8.03;;;;;;;;;;4978300;28;20662;-82
2024/03/11 12:06:19;;;;;;;8.30;8.10;;;;;;;;;;4980060;28;20682;-81
2024/03/11 12:08:50;;;;;;;7.90;7.70;;;;;;;;;;4969488;28;20678;-79
2024/03/11 12:11:19;;;;;;;8.40;8.10;;;;;;;;;;4974756;28;20635;-78
2024/03/11 12:13:48;;;;;;;8.37;8.07;;;;;;;;;;4995857;28;20657;-81
2024/03/11 12:16:23;;;;;;;7.50;7.20;;;;;;;;;;4996845;28;20626;-79
2024/03/11 12:19:05;;;;;;;8.07;7.67;;;;;;;;;;4975845;28;20605;-82
2024/03/11 12:21:34;;;;;;;8.23;7.93;;;;;;;;;;4967152;28;20636;-81
2024/03/11 12:24:07;;;;;;;9.33;9.03;;;;;;;;;;4995935;28;20625;-82
2024/03/11 12:26:35;;;;;;;9.60;9.20;;;;;;;;;;4984517;28;20626;-83
2024/03/11 12:29:05;;;;;;;9.53;9.23;;;;;;;;;;5004930;28;21235;-81
2024/03/11 12:31:34;;;;;;;10.30;9.90;;;;;;;;;;4982158;28;20632;-82
2024/03/11 12:34:06;;;;;;;9.80;9.50;;;;;;;;;;5002155;28;20626;-82
2024/03/11 12:36:35;;;;;;;10.77;10.23;;;;;;;;;;4999518;28;20698;-80
2024/03/11 12:44:55;;;;;;;10.67;10.27;;;;;;;;;;4912068;29;21011;-79
2024/03/11 12:50:29;;;;;;;11.33;10.83;;;;;;;;;;5032529;23;20714;-80
2024/03/11 12:53:02;;;;;;;12.27;11.63;;;;;;;;;;4973476;28;20618;-81
2024/03/11 12:55:31;;;;;;;12.10;11.60;;;;;;;;;;4976338;28;20622;-79
2024/03/11 12:58:04;;;;;;;11.47;10.97;;;;;;;;;;4981742;28;20633;-80
2024/03/11 13:00:33;;;;;;;10.80;10.50;;;;;;;;;;4983013;28;21229;-80
2024/03/11 13:03:11;;;;;;;11.30;10.80;;;;;;;;;;4976610;28;20629;-81
2024/03/11 13:05:53;;;;;;;11.17;10.77;;;;;;;;;;4969609;28;20584;-81
2024/03/11 13:08:22;;;;;;;11.60;11.10;;;;;;;;;;4972703;28;21251;-80
2024/03/11 13:10:50;;;;;;;11.30;10.80;;;;;;;;;;5002744;28;20626;-77
2024/03/11 13:13:19;;;;;;;10.70;10.40;;;;;;;;;;4960973;28;160441;-80
2024/03/11 13:15:48;;;;;;;10.93;10.50;;;;;;;;;;4959328;28;20685;-81
